createdAt,value
2022-12-23T00:01:05.027Z,5.50
2022-12-23T00:03:33.246Z,5.50
2022-12-23T00:06:00.894Z,5.50
2022-12-23T00:08:28.011Z,5.50
2022-12-23T00:10:56.813Z,5.50
2022-12-23T00:13:42.329Z,5.50
2022-12-23T00:16:12.291Z,5.40
2022-12-23T00:18:39.754Z,5.40
2022-12-23T00:21:10.192Z,5.40
2022-12-23T00:23:39.686Z,5.30
2022-12-23T00:26:07.324Z,5.30
2022-12-23T00:28:34.342Z,5.30
2022-12-23T00:31:06.778Z,5.30
2022-12-23T00:33:38.948Z,5.40
2022-12-23T00:36:22.437Z,5.40
2022-12-23T00:39:08.029Z,5.40
2022-12-23T00:41:53.919Z,5.40
2022-12-23T00:44:21.522Z,5.40
2022-12-23T00:46:48.972Z,5.40
2022-12-23T00:49:36.457Z,5.30
2022-12-23T00:52:05.292Z,5.30
2022-12-23T00:54:32.198Z,5.30
2022-12-23T00:57:00.361Z,5.40
2022-12-23T00:59:27.222Z,5.40
2022-12-23T01:02:13.011Z,5.40
2022-12-23T01:04:58.897Z,5.40
2022-12-23T01:07:26.068Z,5.40
2022-12-23T01:09:52.855Z,5.30
2022-12-23T01:12:19.851Z,5.30
2022-12-23T01:14:54.597Z,5.40
2022-12-23T01:17:21.680Z,5.40
2022-12-23T01:19:48.549Z,5.40
2022-12-23T01:22:15.404Z,5.40
2022-12-23T01:24:42.303Z,5.40
2022-12-23T01:27:09.248Z,5.40
2022-12-23T01:29:36.150Z,5.40
2022-12-23T01:32:02.937Z,5.50
2022-12-23T01:34:36.153Z,5.50
2022-12-23T01:37:03.847Z,5.50
2022-12-23T01:39:30.878Z,5.50
2022-12-23T01:42:16.164Z,5.50
2022-12-23T01:44:56.832Z,5.50
2022-12-23T01:47:29.733Z,5.50
2022-12-23T01:50:13.542Z,5.40
2022-12-23T01:52:49.583Z,5.40
2022-12-23T01:55:20.639Z,5.40
2022-12-23T01:57:48.650Z,5.50
2022-12-23T02:00:34.383Z,5.50
2022-12-23T02:03:19.696Z,5.50
2022-12-23T02:05:48.206Z,5.50
2022-12-23T02:08:35.625Z,5.50
2022-12-23T02:11:24.182Z,5.50
2022-12-23T02:14:21.515Z,5.60
2022-12-23T02:17:01.134Z,5.50
2022-12-23T02:19:39.133Z,5.60
2022-12-23T02:22:17.800Z,5.60
2022-12-23T02:25:02.799Z,5.60
2022-12-23T02:27:44.007Z,5.60
2022-12-23T02:30:30.244Z,5.60
2022-12-23T02:33:22.034Z,5.60
2022-12-23T02:36:09.150Z,5.60
2022-12-23T02:39:18.511Z,5.60
2022-12-23T02:42:00.351Z,5.60
2022-12-23T02:44:33.456Z,5.60
2022-12-23T02:47:10.153Z,5.60
2022-12-23T02:49:42.382Z,5.60
2022-12-23T02:52:14.089Z,5.70
2022-12-23T02:54:59.111Z,5.70
2022-12-23T02:57:37.220Z,5.70
2022-12-23T03:00:06.200Z,5.70
2022-12-23T03:02:39.387Z,5.70
2022-12-23T03:05:23.066Z,5.70
2022-12-23T03:07:52.614Z,5.70
2022-12-23T03:10:56.471Z,5.70
2022-12-23T03:14:05.512Z,5.70
2022-12-23T03:16:38.870Z,5.70
2022-12-23T03:19:25.943Z,5.70
2022-12-23T03:22:08.924Z,5.70
2022-12-23T03:25:16.336Z,5.70
2022-12-23T03:27:53.225Z,5.70
2022-12-23T03:30:22.317Z,5.70
2022-12-23T03:33:15.455Z,5.70
2022-12-23T03:35:48.512Z,5.70
2022-12-23T03:38:18.365Z,5.80
2022-12-23T03:40:58.125Z,5.80
2022-12-23T03:43:33.390Z,5.80
2022-12-23T03:46:11.796Z,5.70
2022-12-23T03:48:58.151Z,5.70
2022-12-23T03:51:32.881Z,5.80
2022-12-23T03:54:03.007Z,5.80
2022-12-23T03:56:38.371Z,5.80
2022-12-23T03:59:17.167Z,5.80
2022-12-23T04:01:47.066Z,5.80
2022-12-23T04:04:26.965Z,5.80
2022-12-23T04:07:06.785Z,5.80
2022-12-23T04:09:35.611Z,5.80
2022-12-23T04:12:02.873Z,5.80
2022-12-23T04:14:30.793Z,5.90
2022-12-23T04:17:00.988Z,5.90
2022-12-23T04:19:30.509Z,5.80
2022-12-23T04:21:57.902Z,5.80
2022-12-23T04:24:24.936Z,5.90
2022-12-23T04:26:51.888Z,5.90
2022-12-23T04:29:18.738Z,5.90
2022-12-23T04:31:45.732Z,5.90
2022-12-23T04:34:12.608Z,5.80
2022-12-23T04:36:39.459Z,5.80
2022-12-23T04:39:06.288Z,5.70
2022-12-23T04:41:33.119Z,5.70
2022-12-23T04:43:59.883Z,5.80
2022-12-23T04:46:26.786Z,5.70
2022-12-23T04:48:53.690Z,5.70
2022-12-23T04:51:20.502Z,5.70
2022-12-23T04:53:47.330Z,5.70
2022-12-23T04:56:14.100Z,5.90
2022-12-23T04:58:40.928Z,5.90
2022-12-23T05:01:10.590Z,5.90
2022-12-23T05:03:38.459Z,5.90
2022-12-23T05:06:05.754Z,5.90
2022-12-23T05:08:32.706Z,6.00
2022-12-23T05:10:59.736Z,6.10
2022-12-23T05:13:26.897Z,6.10
2022-12-23T05:15:54.844Z,6.10
2022-12-23T05:18:22.990Z,6.10
2022-12-23T05:20:49.784Z,6.20
2022-12-23T05:23:16.663Z,6.20
2022-12-23T05:25:43.473Z,6.20
2022-12-23T05:28:10.741Z,6.30
2022-12-23T05:30:37.660Z,6.30
2022-12-23T05:33:04.567Z,6.30
2022-12-23T05:35:31.396Z,6.30
2022-12-23T05:37:58.785Z,6.40
2022-12-23T05:40:29.604Z,6.40
2022-12-23T05:42:58.075Z,6.50
2022-12-23T05:45:25.106Z,6.50
2022-12-23T05:47:52.087Z,6.50
2022-12-23T05:50:18.911Z,6.50
2022-12-23T05:52:48.709Z,6.50
2022-12-23T05:55:15.811Z,6.60
2022-12-23T05:57:42.581Z,6.60
2022-12-23T06:00:10.011Z,6.60
2022-12-23T06:02:39.733Z,6.70
2022-12-23T06:05:07.158Z,6.70
2022-12-23T06:07:34.069Z,6.80
2022-12-23T06:10:00.915Z,6.80
2022-12-23T06:12:27.702Z,6.90
2022-12-23T06:14:54.552Z,6.90
2022-12-23T06:17:21.372Z,7.00
2022-12-23T06:19:48.245Z,7.10
2022-12-23T06:22:15.771Z,7.10
2022-12-23T06:24:42.549Z,7.30
2022-12-23T06:27:09.407Z,7.50
2022-12-23T06:29:36.516Z,7.60
2022-12-23T06:32:03.512Z,7.60
2022-12-23T06:34:31.406Z,7.60
2022-12-23T06:36:58.427Z,7.70
2022-12-23T06:39:25.223Z,7.80
2022-12-23T06:41:52.018Z,7.80
2022-12-23T06:44:19.174Z,7.80
2022-12-23T06:46:45.938Z,7.90
2022-12-23T06:49:13.864Z,7.90
2022-12-23T06:51:40.887Z,7.80
2022-12-23T06:54:09.831Z,7.90
2022-12-23T06:56:36.801Z,7.90
2022-12-23T06:59:03.778Z,7.90
2022-12-23T07:01:30.667Z,7.90
2022-12-23T07:03:57.551Z,7.90
2022-12-23T07:06:24.370Z,8.00
2022-12-23T07:08:51.359Z,7.90
2022-12-23T07:11:18.598Z,7.90
2022-12-23T07:13:46.814Z,7.90
2022-12-23T07:16:13.942Z,7.90
2022-12-23T07:18:40.991Z,7.90
2022-12-23T07:21:14.009Z,7.90
2022-12-23T07:23:44.879Z,7.90
2022-12-23T07:26:11.825Z,7.90
2022-12-23T07:28:40.066Z,7.90
2022-12-23T07:31:07.841Z,7.90
2022-12-23T07:33:34.688Z,7.90
2022-12-23T07:36:01.547Z,7.90
2022-12-23T07:38:29.124Z,7.90
2022-12-23T07:40:55.980Z,7.90
2022-12-23T07:43:22.887Z,7.90
2022-12-23T07:45:55.633Z,7.90
2022-12-23T07:48:26.202Z,7.80
2022-12-23T07:50:53.146Z,7.80
2022-12-23T07:53:20.060Z,7.80
2022-12-23T07:55:51.508Z,7.80
2022-12-23T07:58:21.549Z,7.80
2022-12-23T08:00:48.397Z,7.80
2022-12-23T08:03:15.344Z,7.70
2022-12-23T08:05:42.311Z,7.80
2022-12-23T08:08:09.127Z,7.80
2022-12-23T08:10:35.985Z,7.70
2022-12-23T08:16:04.748Z,7.70
2022-12-23T08:18:33.469Z,7.70
2022-12-23T08:21:03.173Z,7.70
2022-12-23T08:23:32.061Z,7.70
2022-12-23T08:26:00.342Z,7.70
2022-12-23T08:28:27.585Z,7.60
2022-12-23T08:30:54.907Z,7.60
2022-12-23T08:33:21.766Z,7.60
2022-12-23T08:35:48.652Z,7.60
2022-12-23T08:38:15.478Z,7.60
2022-12-23T08:40:42.343Z,7.60
2022-12-23T08:43:09.807Z,7.60
2022-12-23T08:45:38.423Z,7.50
2022-12-23T08:48:06.521Z,7.60
2022-12-23T08:50:44.970Z,7.60
2022-12-23T08:53:13.382Z,7.70
2022-12-23T08:55:42.201Z,7.80
2022-12-23T08:58:09.783Z,7.80
2022-12-23T09:00:38.656Z,7.60
2022-12-23T09:03:05.986Z,7.50
2022-12-23T09:05:33.648Z,7.50
2022-12-23T09:08:01.859Z,7.50
2022-12-23T09:10:28.697Z,7.50
2022-12-23T09:12:57.977Z,7.50
2022-12-23T09:15:25.192Z,7.50
2022-12-23T09:17:51.977Z,7.50
2022-12-23T09:20:18.734Z,7.50
2022-12-23T09:22:45.542Z,7.50
2022-12-23T09:25:12.344Z,7.50
2022-12-23T09:27:39.192Z,7.60
2022-12-23T09:30:06.726Z,7.50
2022-12-23T09:32:33.560Z,7.50
2022-12-23T09:35:00.389Z,7.50
2022-12-23T09:37:27.261Z,7.50
2022-12-23T09:39:54.013Z,7.50
2022-12-23T09:42:23.545Z,7.50
2022-12-23T09:45:04.708Z,7.50
2022-12-23T09:47:33.256Z,7.40
2022-12-23T09:50:23.717Z,7.50
2022-12-23T09:53:07.305Z,7.40
2022-12-23T09:55:45.870Z,7.40
2022-12-23T09:58:27.120Z,7.30
2022-12-23T10:01:10.100Z,7.30
2022-12-23T10:04:20.797Z,7.30
2022-12-23T10:06:57.763Z,7.30
2022-12-23T10:09:29.424Z,7.30
2022-12-23T10:11:57.085Z,7.30
2022-12-23T10:14:25.108Z,7.30
2022-12-23T10:16:58.835Z,7.30
2022-12-23T10:19:41.685Z,7.30
2022-12-23T10:22:32.021Z,7.30
2022-12-23T10:25:02.014Z,7.30
2022-12-23T10:27:34.265Z,7.30
2022-12-23T10:30:34.104Z,7.50
2022-12-23T10:33:05.516Z,7.40
2022-12-23T10:35:54.396Z,7.40
2022-12-23T10:38:58.859Z,7.30
2022-12-23T10:41:43.311Z,7.30
2022-12-23T10:44:28.749Z,7.30
2022-12-23T10:47:17.301Z,7.30
2022-12-23T10:50:07.084Z,7.60
2022-12-23T10:52:38.032Z,7.60
2022-12-23T10:55:05.486Z,7.70
2022-12-23T10:57:32.903Z,7.70
2022-12-23T10:59:59.657Z,7.60
2022-12-23T11:02:42.199Z,7.70
2022-12-23T11:05:15.454Z,7.70
2022-12-23T11:07:45.795Z,7.70
2022-12-23T11:10:32.791Z,7.60
2022-12-23T11:13:00.800Z,7.60
2022-12-23T11:15:29.742Z,7.60
2022-12-23T11:18:11.635Z,7.50
2022-12-23T11:20:43.637Z,7.50
2022-12-23T11:23:36.871Z,7.50
2022-12-23T11:26:06.300Z,7.40
2022-12-23T11:28:36.820Z,7.40
2022-12-23T11:31:09.513Z,7.40
2022-12-23T11:33:39.837Z,7.40
2022-12-23T11:36:12.484Z,7.40
2022-12-23T11:39:09.633Z,7.40
2022-12-23T11:42:12.648Z,7.40
2022-12-23T11:44:50.026Z,7.40
2022-12-23T11:47:22.989Z,7.30
2022-12-23T11:50:04.121Z,7.40
2022-12-23T11:52:33.709Z,7.30
2022-12-23T11:55:07.417Z,7.30
2022-12-23T11:57:51.267Z,7.30
2022-12-23T12:00:43.601Z,7.10
2022-12-23T12:03:20.914Z,7.30
2022-12-23T12:06:00.956Z,8.00
2022-12-23T12:08:37.895Z,7.20
2022-12-23T12:11:17.475Z,7.20
2022-12-23T12:14:06.087Z,7.30
2022-12-23T12:16:46.895Z,7.20
2022-12-23T12:19:45.228Z,7.20
2022-12-23T12:22:18.258Z,7.30
2022-12-23T12:24:51.211Z,7.20
2022-12-23T12:27:20.966Z,7.20
2022-12-23T12:29:55.876Z,7.30
2022-12-23T12:32:42.036Z,7.30
2022-12-23T12:35:17.380Z,7.40
2022-12-23T12:37:53.680Z,7.40
2022-12-23T12:40:42.416Z,7.40
2022-12-23T12:43:33.434Z,7.50
2022-12-23T12:46:11.561Z,7.50
2022-12-23T12:48:46.458Z,7.50
2022-12-23T12:51:24.797Z,7.50
2022-12-23T12:54:32.503Z,7.50
2022-12-23T12:56:59.751Z,7.40
2022-12-23T12:59:31.112Z,7.20
2022-12-23T13:02:19.829Z,7.20
2022-12-23T13:04:52.507Z,7.20
2022-12-23T13:07:57.544Z,7.10
2022-12-23T13:10:54.916Z,7.10
2022-12-23T13:14:05.517Z,7.10
2022-12-23T13:17:10.868Z,7.10
2022-12-23T13:19:46.193Z,7.10
2022-12-23T13:22:27.301Z,7.20
2022-12-23T13:25:16.906Z,7.20
2022-12-23T13:27:54.043Z,7.20
2022-12-23T13:30:23.821Z,7.30
2022-12-23T13:33:18.715Z,7.30
2022-12-23T13:35:59.744Z,7.30
2022-12-23T13:39:04.947Z,7.30
2022-12-23T13:41:39.473Z,7.30
2022-12-23T13:44:09.591Z,7.30
2022-12-23T13:47:05.044Z,7.30
2022-12-23T13:49:53.153Z,7.30
2022-12-23T13:52:41.613Z,7.30
2022-12-23T13:55:32.547Z,7.20
2022-12-23T13:58:30.038Z,7.20
2022-12-23T14:01:27.071Z,7.10
2022-12-23T14:04:31.672Z,7.10
2022-12-23T14:07:30.657Z,7.10
2022-12-23T14:10:32.716Z,6.90
2022-12-23T14:13:29.323Z,7.00
2022-12-23T14:16:16.704Z,6.90
2022-12-23T14:18:46.660Z,6.90
2022-12-23T14:21:36.235Z,6.80
2022-12-23T14:24:46.247Z,6.90
2022-12-23T14:27:31.592Z,6.80
2022-12-23T14:30:34.076Z,6.90
2022-12-23T14:33:03.983Z,6.90
2022-12-23T14:35:42.001Z,6.80
2022-12-23T14:38:09.734Z,6.80
2022-12-23T14:40:39.659Z,6.80
2022-12-23T14:43:25.364Z,6.80
2022-12-23T14:45:56.635Z,6.80
2022-12-23T14:48:41.992Z,6.80
2022-12-23T14:51:08.966Z,6.80
2022-12-23T14:53:56.851Z,6.80
2022-12-23T14:56:23.651Z,6.70
2022-12-23T14:58:55.280Z,6.70
2022-12-23T15:01:32.511Z,6.70
2022-12-23T15:04:05.403Z,6.70
2022-12-23T15:06:37.711Z,6.70
2022-12-23T15:09:07.370Z,6.70
2022-12-23T15:11:35.799Z,6.70
2022-12-23T15:14:07.757Z,6.70
2022-12-23T15:16:37.690Z,6.70
2022-12-23T15:19:25.994Z,6.60
2022-12-23T15:22:17.277Z,6.60
2022-12-23T15:24:46.647Z,6.50
2022-12-23T15:27:27.781Z,6.50
2022-12-23T15:29:56.411Z,6.50
2022-12-23T15:32:25.613Z,6.50
2022-12-23T15:34:56.144Z,6.50
2022-12-23T15:37:28.526Z,6.50
2022-12-23T15:40:04.541Z,6.50
2022-12-23T15:42:38.283Z,6.50
2022-12-23T15:45:29.451Z,6.40
2022-12-23T15:47:56.543Z,6.40
2022-12-23T15:50:23.380Z,6.30
2022-12-23T15:52:51.173Z,6.30
2022-12-23T15:55:39.379Z,6.30
2022-12-23T15:58:06.205Z,6.30
2022-12-23T16:00:50.995Z,6.30
2022-12-23T16:03:34.528Z,6.30
2022-12-23T16:06:10.470Z,6.30
2022-12-23T16:08:38.464Z,6.30
2022-12-23T16:11:17.985Z,6.30
2022-12-23T16:14:00.296Z,6.40
2022-12-23T16:16:40.282Z,6.40
2022-12-23T16:19:36.580Z,6.40
2022-12-23T16:22:26.680Z,6.40
2022-12-23T16:25:15.277Z,6.40
2022-12-23T16:28:04.064Z,6.30
2022-12-23T16:30:36.861Z,6.30
2022-12-23T16:33:22.238Z,6.30
2022-12-23T16:35:49.016Z,6.30
2022-12-23T16:38:26.413Z,6.30
2022-12-23T16:40:56.096Z,6.30
2022-12-23T16:43:24.812Z,6.30
2022-12-23T16:45:57.247Z,6.30
2022-12-23T16:48:33.200Z,6.30
2022-12-23T16:51:01.913Z,6.30
2022-12-23T16:53:28.798Z,6.30
2022-12-23T16:56:00.612Z,6.30
2022-12-23T16:58:28.694Z,6.20
2022-12-23T17:00:56.848Z,6.20
2022-12-23T17:03:23.580Z,6.10
2022-12-23T17:05:50.347Z,6.10
2022-12-23T17:08:17.332Z,6.10
2022-12-23T17:10:44.978Z,6.00
2022-12-23T17:13:14.945Z,6.00
2022-12-23T17:15:41.911Z,5.90
2022-12-23T17:18:27.127Z,5.90
2022-12-23T17:20:53.947Z,5.90
2022-12-23T17:23:29.645Z,5.90
2022-12-23T17:25:56.979Z,5.90
2022-12-23T17:28:29.436Z,5.90
2022-12-23T17:30:56.636Z,5.90
2022-12-23T17:33:26.795Z,5.90
2022-12-23T17:35:53.701Z,5.90
2022-12-23T17:38:20.577Z,5.90
2022-12-23T17:40:48.941Z,5.90
2022-12-23T17:43:20.242Z,5.80
2022-12-23T17:45:47.241Z,5.90
2022-12-23T17:48:20.775Z,5.90
2022-12-23T17:50:50.055Z,5.90
2022-12-23T17:53:18.406Z,5.90
2022-12-23T17:55:45.639Z,5.90
2022-12-23T17:58:13.961Z,5.90
2022-12-23T18:00:41.184Z,6.00
2022-12-23T18:03:21.254Z,6.00
2022-12-23T18:05:48.146Z,5.90
2022-12-23T18:08:15.328Z,5.90
2022-12-23T18:10:42.339Z,5.90
2022-12-23T18:13:15.776Z,5.90
2022-12-23T18:15:44.311Z,5.80
2022-12-23T18:18:28.636Z,5.80
2022-12-23T18:20:58.648Z,5.80
2022-12-23T18:23:30.395Z,5.80
2022-12-23T18:25:58.055Z,5.80
2022-12-23T18:28:25.972Z,5.80
2022-12-23T18:30:56.257Z,5.70
2022-12-23T18:33:24.347Z,5.70
2022-12-23T18:35:51.289Z,5.80
2022-12-23T18:38:18.618Z,5.80
2022-12-23T18:40:45.937Z,5.80
2022-12-23T18:43:21.593Z,5.80
2022-12-23T18:45:53.462Z,5.80
2022-12-23T18:48:21.297Z,5.80
2022-12-23T18:50:48.410Z,5.80
2022-12-23T18:53:24.747Z,5.80
2022-12-23T18:55:53.085Z,5.90
2022-12-23T18:58:20.694Z,5.80
2022-12-23T19:00:48.592Z,5.80
2022-12-23T19:03:30.074Z,5.80
2022-12-23T19:06:06.280Z,5.80
2022-12-23T19:08:35.113Z,5.80
2022-12-23T19:11:02.429Z,5.80
2022-12-23T19:13:29.273Z,5.80
2022-12-23T19:15:56.235Z,5.70
2022-12-23T19:18:23.060Z,5.80
2022-12-23T19:20:50.023Z,5.80
2022-12-23T19:23:16.919Z,5.70
2022-12-23T19:25:52.505Z,5.70
2022-12-23T19:28:21.645Z,5.70
2022-12-23T19:30:48.675Z,5.70
2022-12-23T19:33:16.078Z,5.80
2022-12-23T19:35:43.674Z,5.80
2022-12-23T19:38:11.602Z,5.80
2022-12-23T19:40:39.608Z,5.80
2022-12-23T19:43:06.718Z,5.80
2022-12-23T19:45:33.503Z,5.70
2022-12-23T19:48:00.327Z,5.70
2022-12-23T19:50:27.517Z,5.80
2022-12-23T19:52:56.090Z,5.80
2022-12-23T19:55:23.241Z,5.90
2022-12-23T19:57:50.092Z,5.90
2022-12-23T20:00:17.096Z,6.00
2022-12-23T20:02:44.363Z,6.00
2022-12-23T20:05:11.131Z,6.00
2022-12-23T20:07:38.140Z,6.00
2022-12-23T20:10:06.051Z,6.00
2022-12-23T20:12:32.964Z,6.10
2022-12-23T20:14:59.836Z,6.00
2022-12-23T20:17:26.851Z,6.10
2022-12-23T20:19:53.637Z,6.10
2022-12-23T20:22:20.769Z,6.10
2022-12-23T20:24:47.694Z,6.10
2022-12-23T20:27:16.074Z,6.10
2022-12-23T20:29:43.162Z,6.10
2022-12-23T20:32:10.408Z,6.10
2022-12-23T20:34:39.867Z,6.10
2022-12-23T20:37:07.856Z,6.10
2022-12-23T20:39:35.314Z,6.00
2022-12-23T20:42:02.181Z,6.10
2022-12-23T20:47:11.197Z,6.00
2022-12-23T20:49:38.210Z,6.10
2022-12-23T20:52:05.276Z,7.40
2022-12-23T20:54:33.858Z,6.00
2022-12-23T20:57:02.155Z,6.00
2022-12-23T20:59:29.241Z,6.00
2022-12-23T21:01:59.235Z,6.00
2022-12-23T21:04:26.785Z,6.00
2022-12-23T21:06:53.764Z,6.10
2022-12-23T21:09:20.757Z,6.10
2022-12-23T21:11:48.418Z,6.10
2022-12-23T21:14:16.010Z,6.10
2022-12-23T21:16:43.604Z,6.00
2022-12-23T21:19:17.878Z,6.00
2022-12-23T21:21:45.756Z,6.00
2022-12-23T21:24:13.238Z,6.40
2022-12-23T21:26:40.360Z,6.00
2022-12-23T21:29:09.169Z,6.00
2022-12-23T21:31:39.368Z,6.00
2022-12-23T21:34:06.827Z,6.00
2022-12-23T21:36:37.012Z,6.00
2022-12-23T21:39:05.557Z,6.00
2022-12-23T21:41:36.330Z,6.00
2022-12-23T21:44:03.885Z,6.00
2022-12-23T21:46:31.255Z,5.90
2022-12-23T21:48:59.293Z,6.00
2022-12-23T21:51:35.056Z,6.00
2022-12-23T21:54:05.778Z,5.90
2022-12-23T21:56:32.795Z,6.00
2022-12-23T21:59:06.123Z,6.00
2022-12-23T22:01:33.389Z,5.90
2022-12-23T22:04:00.746Z,6.00
2022-12-23T22:06:33.559Z,6.00
2022-12-23T22:09:00.592Z,6.00
2022-12-23T22:11:30.446Z,6.00
2022-12-23T22:13:59.491Z,5.90
2022-12-23T22:16:28.700Z,6.00
2022-12-23T22:18:56.795Z,6.00
2022-12-23T22:21:25.485Z,6.00
2022-12-23T22:23:55.366Z,6.00
2022-12-23T22:26:28.164Z,5.90
2022-12-23T22:28:56.800Z,6.00
2022-12-23T22:31:47.264Z,6.00
2022-12-23T22:34:18.859Z,6.00
2022-12-23T22:36:49.283Z,6.00
2022-12-23T22:39:20.980Z,6.00
2022-12-23T22:41:52.512Z,6.10
2022-12-23T22:44:20.057Z,6.00
2022-12-23T22:46:47.035Z,6.00
2022-12-23T22:49:15.103Z,6.40
2022-12-23T22:51:42.798Z,6.10
2022-12-23T22:54:10.303Z,6.10
2022-12-23T22:56:37.188Z,6.10
2022-12-23T22:59:05.079Z,6.10
2022-12-23T23:01:34.432Z,6.00
2022-12-23T23:04:02.905Z,6.00
2022-12-23T23:06:34.195Z,6.00
2022-12-23T23:09:01.384Z,6.10
2022-12-23T23:11:28.980Z,6.00
2022-12-23T23:13:56.519Z,6.10
2022-12-23T23:16:24.387Z,6.00
2022-12-23T23:18:52.241Z,6.00
2022-12-23T23:21:19.342Z,6.00
2022-12-23T23:23:46.347Z,6.00
2022-12-23T23:26:13.376Z,6.00
2022-12-23T23:28:41.282Z,6.10
2022-12-23T23:31:40.633Z,6.00
2022-12-23T23:33:57.780Z,6.40
2022-12-23T23:36:24.962Z,6.10
2022-12-23T23:38:52.064Z,6.10
2022-12-23T23:41:22.771Z,6.00
2022-12-23T23:43:51.367Z,6.00
2022-12-23T23:46:18.877Z,6.00
2022-12-23T23:48:45.793Z,6.00
2022-12-23T23:51:15.751Z,6.00
2022-12-23T23:53:42.785Z,6.00
2022-12-23T23:56:09.792Z,6.00
2022-12-23T23:58:37.985Z,6.00
